createdAt,value
2019-04-25T00:04:11.481Z,99660.64
2019-04-25T00:09:17.452Z,99672.91
2019-04-25T00:14:22.627Z,99666.34
2019-04-25T00:19:26.658Z,99671.16
2019-04-25T00:24:48.139Z,99672.45
2019-04-25T00:29:52.007Z,99684.31
2019-04-25T00:34:55.681Z,99682.52
2019-04-25T00:39:59.306Z,99682.09
2019-04-25T00:45:02.891Z,99684.24
2019-04-25T00:50:06.956Z,99689.98
2019-04-25T00:55:11.631Z,99704.42
2019-04-25T01:00:23.780Z,99706.63
2019-04-25T01:05:27.359Z,99704.39
2019-04-25T01:10:31.604Z,99702.64
2019-04-25T01:15:35.284Z,99698.67
2019-04-25T01:20:38.855Z,99703.44
2019-04-25T01:25:44.573Z,99702.13
2019-04-25T01:30:47.918Z,99719.61
2019-04-25T01:35:55.803Z,99714.76
2019-04-25T01:41:00.935Z,99718.23
2019-04-25T01:46:04.773Z,99709.45
2019-04-25T01:51:08.365Z,99703.72
2019-04-25T01:56:13.542Z,99699.31
2019-04-25T02:01:17.295Z,99690.55
2019-04-25T02:06:20.913Z,99689.17
2019-04-25T02:11:26.098Z,99689.58
2019-04-25T02:16:29.964Z,99686.91
2019-04-25T02:21:33.591Z,99685.16
2019-04-25T02:26:37.236Z,99693.45
2019-04-25T02:31:40.857Z,99700.41
2019-04-25T02:36:47.086Z,99700.33
2019-04-25T02:41:49.926Z,99696.83
2019-04-25T02:47:11.515Z,99693.29
2019-04-25T02:52:24.780Z,99691.45
2019-04-25T02:57:28.154Z,99688.81
2019-04-25T03:02:31.708Z,99690.53
2019-04-25T03:07:35.312Z,99693.16
2019-04-25T03:12:38.865Z,99692.77
2019-04-25T03:17:44.420Z,99698.41
2019-04-25T03:22:47.771Z,99697.97
2019-04-25T03:27:51.325Z,99699.23
2019-04-25T03:32:56.205Z,99689.60
2019-04-25T03:38:01.131Z,99687.86
2019-04-25T03:43:06.243Z,99697.91
2019-04-25T03:48:10.606Z,99712.41
2019-04-25T03:53:14.165Z,99721.21
2019-04-25T03:58:17.781Z,99730.39
2019-04-25T04:03:21.325Z,99768.45
2019-04-25T04:08:24.922Z,99805.77
2019-04-25T04:13:28.481Z,99805.86
2019-04-25T04:18:39.681Z,99809.03
2019-04-25T04:23:44.868Z,99810.00
2019-04-25T04:28:48.460Z,99811.84
2019-04-25T04:33:53.133Z,99810.20
2019-04-25T04:38:56.816Z,99796.59
2019-04-25T04:44:00.374Z,99802.80
2019-04-25T04:49:04.047Z,99819.48
2019-04-25T04:54:07.626Z,99824.04
2019-04-25T04:59:11.194Z,99847.13
2019-04-25T05:04:17.153Z,99843.98
2019-04-25T05:09:23.811Z,99846.33
2019-04-25T05:14:27.523Z,99848.20
2019-04-25T05:19:31.092Z,99856.10
2019-04-25T05:24:34.697Z,99852.61
2019-04-25T05:29:38.254Z,99847.77
2019-04-25T05:34:41.824Z,99845.48
2019-04-25T05:39:45.518Z,99835.95
2019-04-25T05:44:49.244Z,99844.59
2019-04-25T05:49:54.143Z,99850.55
2019-04-25T05:54:57.899Z,99841.73
2019-04-25T06:00:01.463Z,99837.22
2019-04-25T06:05:07.352Z,99850.56
2019-04-25T06:10:15.337Z,99840.20
2019-04-25T06:15:20.490Z,99836.75
2019-04-25T06:20:25.787Z,99852.74
2019-04-25T06:25:34.735Z,99853.43
2019-04-25T06:30:35.902Z,99853.61
2019-04-25T06:35:39.479Z,99848.49
2019-04-25T06:40:43.739Z,99852.45
2019-04-25T06:45:50.294Z,99865.16
2019-04-25T06:50:53.922Z,99855.48
2019-04-25T06:55:57.535Z,99862.23
2019-04-25T07:01:01.234Z,99865.37
2019-04-25T07:06:05.215Z,99873.30
2019-04-25T07:11:08.818Z,99884.91
2019-04-25T07:16:13.395Z,99896.31
2019-04-25T07:21:17.120Z,99898.50
2019-04-25T07:26:39.803Z,99914.41
2019-04-25T07:31:44.998Z,99917.59
2019-04-25T07:36:48.904Z,99912.00
2019-04-25T07:41:54.016Z,99904.30
2019-04-25T07:46:58.695Z,99903.05
2019-04-25T07:52:03.572Z,99904.52
2019-04-25T07:57:07.385Z,99913.61
2019-04-25T08:02:10.932Z,99907.96
2019-04-25T08:07:14.497Z,99908.33
2019-04-25T08:12:18.058Z,99892.94
2019-04-25T08:17:39.919Z,99898.16
2019-04-25T08:22:55.459Z,99885.05
2019-04-25T08:27:48.917Z,99887.48
2019-04-25T08:32:54.043Z,99913.73
2019-04-25T08:37:57.843Z,99907.73
2019-04-25T08:43:01.398Z,99910.41
2019-04-25T08:48:05.570Z,99907.11
2019-04-25T08:53:09.159Z,99906.00
2019-04-25T08:58:31.289Z,99918.91
2019-04-25T09:03:46.280Z,99924.23
2019-04-25T09:08:49.850Z,99924.58
2019-04-25T09:13:53.815Z,99920.88
2019-04-25T09:18:57.467Z,99913.52
2019-04-25T09:24:00.353Z,99925.92
2019-04-25T09:29:16.353Z,99925.75
2019-04-25T09:34:09.219Z,99918.86
2019-04-25T09:39:17.350Z,99916.48
2019-04-25T09:44:25.457Z,99922.48
2019-04-25T09:49:30.629Z,99913.39
2019-04-25T09:54:45.224Z,99915.19
2019-04-25T09:59:48.820Z,99922.75
2019-04-25T10:04:51.680Z,99924.59
2019-04-25T10:09:56.008Z,99919.84
2019-04-25T10:15:05.546Z,99931.39
2019-04-25T10:20:09.109Z,99931.91
2019-04-25T10:25:13.328Z,99923.38
2019-04-25T10:30:23.171Z,99925.09
2019-04-25T10:35:23.949Z,99927.16
2019-04-25T10:40:28.120Z,99928.46
2019-04-25T10:45:31.669Z,99924.92
2019-04-25T10:50:35.289Z,99920.83
2019-04-25T10:55:38.839Z,99922.39
2019-04-25T11:00:46.114Z,99925.50
2019-04-25T11:05:49.822Z,99909.41
2019-04-25T11:10:54.841Z,99909.50
2019-04-25T11:15:58.739Z,99892.57
2019-04-25T11:21:05.700Z,99903.53
2019-04-25T11:26:07.584Z,99899.44
2019-04-25T11:31:14.266Z,99897.76
2019-04-25T11:36:17.884Z,99901.39
2019-04-25T11:41:24.264Z,99903.72
2019-04-25T11:46:28.044Z,99899.00
2019-04-25T11:51:31.638Z,99893.57
2019-04-25T11:56:35.228Z,99887.84
2019-04-25T12:01:38.788Z,99887.44
2019-04-25T12:06:42.983Z,99882.17
2019-04-25T12:11:48.503Z,99881.09
2019-04-25T12:16:53.201Z,99880.77
2019-04-25T12:21:58.233Z,99879.79
2019-04-25T12:27:02.093Z,99878.78
2019-04-25T12:32:06.282Z,99881.45
2019-04-25T12:37:09.861Z,99878.13
2019-04-25T12:42:14.458Z,99881.01
2019-04-25T12:47:25.329Z,99886.36
2019-04-25T12:52:28.949Z,99882.33
2019-04-25T12:57:32.505Z,99880.13
2019-04-25T13:02:36.600Z,99862.16
2019-04-25T13:07:40.237Z,99872.48
2019-04-25T13:12:44.392Z,99865.25
2019-04-25T13:17:48.061Z,99863.06
2019-04-25T13:22:52.868Z,99856.09
2019-04-25T13:27:58.582Z,99852.45
2019-04-25T13:33:20.056Z,99845.20
2019-04-25T13:38:23.654Z,99855.52
2019-04-25T13:43:27.251Z,99850.41
2019-04-25T13:48:30.801Z,99842.70
2019-04-25T13:53:34.395Z,99839.91
2019-04-25T13:58:37.969Z,99833.69
2019-04-25T14:03:41.551Z,99827.95
2019-04-25T14:08:45.531Z,99823.75
2019-04-25T14:13:49.097Z,99819.24
2019-04-25T14:19:10.864Z,99819.91
2019-04-25T14:24:20.517Z,99812.67
2019-04-25T14:29:21.449Z,99815.05
2019-04-25T14:34:26.576Z,99805.66
2019-04-25T14:39:30.501Z,99819.52
2019-04-25T14:44:34.042Z,99801.45
2019-04-25T14:49:37.611Z,99788.98
2019-04-25T14:54:58.948Z,99799.10
2019-04-25T15:00:04.778Z,99804.86
2019-04-25T15:05:08.523Z,99796.74
2019-04-25T15:10:12.094Z,99797.36
2019-04-25T15:15:16.290Z,99797.59
2019-04-25T15:20:19.846Z,99793.92
2019-04-25T15:25:23.441Z,99792.06
2019-04-25T15:30:33.094Z,99793.13
2019-04-25T15:35:53.355Z,99795.48
2019-04-25T15:41:01.855Z,99791.62
2019-04-25T15:46:07.029Z,99791.03
2019-04-25T15:51:10.586Z,99793.91
2019-04-25T15:56:14.155Z,99787.72
2019-04-25T16:01:17.828Z,99790.58
2019-04-25T16:06:21.536Z,99784.06
2019-04-25T16:11:26.552Z,99783.88
2019-04-25T16:16:30.380Z,99777.95
2019-04-25T16:21:33.908Z,99773.93
2019-04-25T16:26:37.527Z,99778.98
2019-04-25T16:31:41.239Z,99779.00
2019-04-25T16:36:44.906Z,99777.44
2019-04-25T16:41:48.534Z,99777.11
2019-04-25T16:46:52.192Z,99781.06
2019-04-25T16:51:55.794Z,99779.31
2019-04-25T16:56:59.352Z,99779.00
2019-04-25T17:02:03.628Z,99779.00
2019-04-25T17:07:08.428Z,99782.39
2019-04-25T17:12:13.028Z,99779.42
2019-04-25T17:17:27.155Z,99782.53
2019-04-25T17:22:33.065Z,99777.06
2019-04-25T17:27:37.541Z,99777.73
2019-04-25T17:32:53.906Z,99780.14
2019-04-25T17:38:01.839Z,99782.70
2019-04-25T17:43:11.081Z,99779.11
2019-04-25T17:48:10.729Z,99773.47
2019-04-25T17:53:14.343Z,99776.69
2019-04-25T17:58:17.946Z,99779.32
2019-04-25T18:03:21.605Z,99777.17
2019-04-25T18:08:25.183Z,99774.77
2019-04-25T18:13:28.746Z,99777.08
2019-04-25T18:18:35.355Z,99781.37
2019-04-25T18:23:52.807Z,99790.63
2019-04-25T18:28:57.945Z,99788.53
2019-04-25T18:34:03.089Z,99794.44
2019-04-25T18:39:08.267Z,99790.21
2019-04-25T18:44:13.398Z,99787.36
2019-04-25T18:49:17.081Z,99796.80
2019-04-25T18:54:25.612Z,99791.80
2019-04-25T18:59:46.022Z,99800.08
2019-04-25T19:04:57.598Z,99802.39
2019-04-25T19:10:01.292Z,99803.04
2019-04-25T19:15:05.647Z,99781.33
2019-04-25T19:20:09.211Z,99807.48
2019-04-25T19:25:12.976Z,99805.41
2019-04-25T19:30:18.194Z,99804.78
2019-04-25T19:35:21.761Z,99813.91
2019-04-25T19:40:39.625Z,99818.57
2019-04-25T19:45:44.850Z,99820.20
2019-04-25T19:50:48.638Z,99820.91
2019-04-25T19:55:52.240Z,99828.70
2019-04-25T20:00:56.460Z,99827.53
2019-04-25T20:06:07.592Z,99829.44
2019-04-25T20:11:12.737Z,99830.77
2019-04-25T20:16:16.396Z,99825.64
2019-04-25T20:21:19.940Z,99822.27
2019-04-25T20:26:23.517Z,99824.12
2019-04-25T20:31:27.080Z,99818.01
2019-04-25T20:36:30.737Z,99813.05
2019-04-25T20:41:34.413Z,99820.20
2019-04-25T20:46:37.985Z,99813.55
2019-04-25T20:51:41.606Z,99819.45
2019-04-25T20:56:45.153Z,99815.11
2019-04-25T21:01:49.665Z,99818.78
2019-04-25T21:06:53.674Z,99819.23
2019-04-25T21:11:58.099Z,99811.77
2019-04-25T21:17:03.441Z,99805.62
2019-04-25T21:22:07.211Z,99807.56
2019-04-25T21:27:10.834Z,99807.53
2019-04-25T21:32:16.231Z,99802.87
2019-04-25T21:37:19.966Z,99796.39
2019-04-25T21:42:28.671Z,99806.18
2019-04-25T21:47:33.299Z,99798.31
2019-04-25T21:52:37.017Z,99799.63
2019-04-25T21:57:41.004Z,99801.49
2019-04-25T22:02:44.730Z,99800.30
2019-04-25T22:07:48.525Z,99792.89
2019-04-25T22:12:52.380Z,99788.62
2019-04-25T22:17:56.815Z,99787.69
2019-04-25T22:23:00.483Z,99787.37
2019-04-25T22:28:05.118Z,99794.47
2019-04-25T22:33:16.941Z,99790.11
2019-04-25T22:38:20.500Z,99785.37
2019-04-25T22:43:24.071Z,99784.48
2019-04-25T22:48:41.902Z,99789.34
2019-04-25T22:53:46.290Z,99788.56
2019-04-25T22:58:49.873Z,99789.95
2019-04-25T23:04:14.042Z,99784.17
2019-04-25T23:09:17.997Z,99780.76
2019-04-25T23:14:21.766Z,99770.31
2019-04-25T23:19:25.319Z,99768.95
2019-04-25T23:24:30.676Z,99775.22
2019-04-25T23:29:34.510Z,99769.08
2019-04-25T23:34:38.087Z,99756.36
2019-04-25T23:39:41.697Z,99757.77
2019-04-25T23:44:45.285Z,99749.81
2019-04-25T23:49:48.879Z,99748.97
2019-04-25T23:54:52.729Z,99737.91
2019-04-25T23:59:56.679Z,99729.61
